Time;durP1;ratioP1;P1;durP2;ratioP2;P2;SDS_P1;SDS_P2;PMS_P1;PMS_P2;Temp;Humidity;BMP_temperature;BMP_pressure;BME280_temperature;BME280_humidity;BME280_pressure;Samples;Min_cycle;Max_cycle;Signal;HPM_P1;HPM_P2
2022/03/11 00:00:57;;;;;;;;;;;;;;;;;;4862574;29;19935;-79
2022/03/11 00:03:23;;;;;;;;;;;;;;;;;;4876916;29;19919;-80
2022/03/11 00:05:50;;;;;;;;;;;;;;;;;;4862580;29;19912;-80
2022/03/11 00:08:16;;;;;;;;;;;;;;;;;;4862277;29;19912;-80
2022/03/11 00:10:42;;;;;;;;;;;;;;;;;;4862080;29;19985;-80
2022/03/11 00:13:08;;;;;;;;;;;;;;;;;;4845709;29;19969;-80
2022/03/11 00:15:34;;;;;;;;;;;;;;;;;;4862554;29;19941;-80
2022/03/11 00:18:00;;;;;;;;;;;;;;;;;;4862071;29;19928;-80
2022/03/11 00:20:26;;;;;;;;;;;;;;;;;;4862171;29;19912;-79
2022/03/11 00:22:52;;;;;;;;;;;;;;;;;;4862212;29;19912;-79
2022/03/11 00:25:19;;;;;;;;;;;;;;;;;;4845171;29;19912;-80
2022/03/11 00:27:44;;;;;;;;;;;;;;;;;;4845686;29;19961;-80
2022/03/11 00:30:10;;;;;;;;;;;;;;;;;;4845180;29;20369;-80
2022/03/11 00:32:36;;;;;;;;;;;;;;;;;;4845378;29;20411;-79
2022/03/11 00:35:04;;;;;;;;;;;;;;;;;;4861775;29;19999;-80
2022/03/11 00:37:29;;;;;;;;;;;;;;;;;;4862149;29;20014;-80
2022/03/11 00:39:55;;;;;;;;;;;;;;;;;;4861767;29;20385;-79
2022/03/11 00:42:21;;;;;;;;;;;;;;;;;;4861394;29;19958;-79
2022/03/11 00:44:47;;;;;;;;;;;;;;;;;;4861944;29;19939;-79
2022/03/11 00:47:13;;;;;;;;;;;;;;;;;;4861715;29;19928;-79
2022/03/11 00:49:39;;;;;;;;;;;;;;;;;;4861188;29;19913;-79
2022/03/11 00:52:05;;;;;;;;;;;;;;;;;;4861393;29;19916;-79
2022/03/11 00:54:31;;;;;;;;;;;;;;;;;;4861523;29;19965;-79
2022/03/11 00:56:57;;;;;;;;;;;;;;;;;;4861528;29;19969;-79
2022/03/11 00:59:23;;;;;;;;;;;;;;;;;;4861025;29;20342;-79
2022/03/11 01:01:49;;;;;;;;;;;;;;;;;;4861679;29;20011;-79
2022/03/11 01:04:15;;;;;;;;;;;;;;;;;;4860871;29;19920;-79
2022/03/11 01:06:41;;;;;;;;;;;;;;;;;;4844558;29;19919;-79
2022/03/11 01:09:07;;;;;;;;;;;;;;;;;;4826469;29;20358;-79
2022/03/11 01:11:33;;;;;;;;;;;;;;;;;;4843014;29;19917;-80
2022/03/11 01:13:59;;;;;;;;;;;;;;;;;;4826577;29;19917;-80
2022/03/11 01:16:25;;;;;;;;;;;;;;;;;;4842714;29;19916;-80
2022/03/11 01:18:51;;;;;;;;;;;;;;;;;;4842595;29;20448;-80
2022/03/11 01:21:17;;;;;;;;;;;;;;;;;;4826091;29;20412;-79
2022/03/11 01:23:42;;;;;;;;;;;;;;;;;;4842354;29;20003;-80
2022/03/11 01:26:10;;;;;;;;;;;;;;;;;;4842640;29;19912;-79
2022/03/11 01:28:39;;;;;;;;;;;;;;;;;;4826422;29;19913;-80
2022/03/11 01:31:05;;;;;;;;;;;;;;;;;;4826145;29;19920;-79
2022/03/11 01:33:31;;;;;;;;;;;;;;;;;;4842641;29;19935;-79
2022/03/11 01:35:56;;;;;;;;;;;;;;;;;;4842499;29;19919;-80
2022/03/11 01:38:22;;;;;;;;;;;;;;;;;;4841914;29;19919;-79
2022/03/11 01:40:48;;;;;;;;;;;;;;;;;;4842768;29;19912;-80
2022/03/11 01:43:14;;;;;;;;;;;;;;;;;;4842509;29;19913;-79
2022/03/11 01:45:40;;;;;;;;;;;;;;;;;;4826221;29;20386;-79
2022/03/11 01:48:07;;;;;;;;;;;;;;;;;;4842565;29;19912;-80
2022/03/11 01:50:33;;;;;;;;;;;;;;;;;;4825961;29;19923;-80
2022/03/11 01:52:59;;;;;;;;;;;;;;;;;;4842273;29;19913;-80
2022/03/11 01:55:25;;;;;;;;;;;;;;;;;;4842344;29;19916;-79
2022/03/11 01:57:51;;;;;;;;;;;;;;;;;;4846310;29;19920;-79
2022/03/11 02:00:17;;;;;;;;;;;;;;;;;;4860769;29;19916;-79
2022/03/11 02:02:43;;;;;;;;;;;;;;;;;;4860850;29;19913;-79
2022/03/11 02:05:09;;;;;;;;;;;;;;;;;;4860695;29;20029;-80
2022/03/11 02:07:35;;;;;;;;;;;;;;;;;;4860568;29;19912;-80
2022/03/11 02:10:00;;;;;;;;;;;;;;;;;;4860650;29;19913;-80
2022/03/11 02:12:27;;;;;;;;;;;;;;;;;;4859117;29;19939;-80
2022/03/11 02:14:52;;;;;;;;;;;;;;;;;;4860825;29;19913;-80
2022/03/11 02:17:18;;;;;;;;;;;;;;;;;;4865334;29;20402;-79
2022/03/11 02:19:44;;;;;;;;;;;;;;;;;;4878962;29;19918;-80
2022/03/11 02:22:12;;;;;;;;;;;;;;;;;;4878325;29;20572;-80
2022/03/11 02:24:38;;;;;;;;;;;;;;;;;;4863597;29;19912;-80
2022/03/11 02:27:04;;;;;;;;;;;;;;;;;;4843656;29;19912;-80
2022/03/11 02:29:31;;;;;;;;;;;;;;;;;;4843878;29;19916;-79
2022/03/11 02:31:57;;;;;;;;;;;;;;;;;;4860399;29;19916;-80
2022/03/11 02:34:22;;;;;;;;;;;;;;;;;;4860245;29;19935;-80
2022/03/11 02:36:48;;;;;;;;;;;;;;;;;;4860107;29;19919;-80
2022/03/11 02:39:14;;;;;;;;;;;;;;;;;;4860496;29;19944;-80
2022/03/11 02:41:43;;;;;;;;;;;;;;;;;;4860153;29;20293;-80
2022/03/11 02:44:08;;;;;;;;;;;;;;;;;;4843793;29;19919;-80
2022/03/11 02:46:34;;;;;;;;;;;;;;;;;;4843479;29;19913;-80
2022/03/11 02:49:00;;;;;;;;;;;;;;;;;;4860501;29;19920;-80
2022/03/11 02:51:26;;;;;;;;;;;;;;;;;;4859908;29;19923;-80
2022/03/11 02:53:52;;;;;;;;;;;;;;;;;;4860362;29;20270;-80
2022/03/11 02:56:18;;;;;;;;;;;;;;;;;;4859875;29;19912;-80
2022/03/11 02:58:44;;;;;;;;;;;;;;;;;;4843648;29;19913;-80
2022/03/11 03:01:10;;;;;;;;;;;;;;;;;;4860353;29;20433;-79
2022/03/11 03:03:36;;;;;;;;;;;;;;;;;;4859938;29;19951;-80
2022/03/11 03:06:02;;;;;;;;;;;;;;;;;;4844861;29;19961;-80
2022/03/11 03:08:28;;;;;;;;;;;;;;;;;;4863378;29;19917;-80
2022/03/11 03:10:54;;;;;;;;;;;;;;;;;;4862550;29;19916;-79
2022/03/11 03:13:19;;;;;;;;;;;;;;;;;;4872558;29;19987;-79
2022/03/11 03:15:45;;;;;;;;;;;;;;;;;;4846759;29;19918;-80
2022/03/11 03:18:11;;;;;;;;;;;;;;;;;;4846477;29;20273;-80
2022/03/11 03:20:37;;;;;;;;;;;;;;;;;;4863022;29;19909;-80
2022/03/11 03:23:03;;;;;;;;;;;;;;;;;;4846837;29;19913;-80
2022/03/11 03:25:29;;;;;;;;;;;;;;;;;;4862771;29;20297;-79
2022/03/11 03:27:55;;;;;;;;;;;;;;;;;;4862955;29;19912;-79
2022/03/11 03:30:21;;;;;;;;;;;;;;;;;;4863190;29;19912;-79
2022/03/11 03:35:16;;;;;;;;;;;;;;;;;;4863398;29;19912;-80
2022/03/11 03:37:42;;;;;;;;;;;;;;;;;;4862988;29;19912;-80
2022/03/11 03:40:08;;;;;;;;;;;;;;;;;;4863088;29;19912;-80
2022/03/11 03:42:34;;;;;;;;;;;;;;;;;;4862750;29;19912;-80
2022/03/11 03:45:00;;;;;;;;;;;;;;;;;;4863026;29;19912;-80
2022/03/11 03:47:26;;;;;;;;;;;;;;;;;;4863081;29;19968;-79
2022/03/11 03:49:52;;;;;;;;;;;;;;;;;;4862774;29;19965;-80
2022/03/11 03:52:18;;;;;;;;;;;;;;;;;;4854867;29;20402;-80
2022/03/11 03:54:44;;;;;;;;;;;;;;;;;;4844209;29;19920;-79
2022/03/11 03:57:10;;;;;;;;;;;;;;;;;;4844478;29;19912;-80
2022/03/11 03:59:37;;;;;;;;;;;;;;;;;;4862136;29;20292;-79
2022/03/11 04:02:03;;;;;;;;;;;;;;;;;;4862378;29;19916;-79
2022/03/11 04:04:29;;;;;;;;;;;;;;;;;;4862645;29;19966;-79
2022/03/11 04:06:55;;;;;;;;;;;;;;;;;;4845581;29;20392;-79
2022/03/11 04:09:21;;;;;;;;;;;;;;;;;;4845973;29;19912;-79
2022/03/11 04:11:47;;;;;;;;;;;;;;;;;;4862669;29;20513;-79
2022/03/11 04:14:13;;;;;;;;;;;;;;;;;;4862496;29;19969;-79
2022/03/11 04:16:39;;;;;;;;;;;;;;;;;;4844151;29;19992;-80
2022/03/11 04:19:05;;;;;;;;;;;;;;;;;;4845880;29;20026;-79
2022/03/11 04:21:30;;;;;;;;;;;;;;;;;;4862107;29;19908;-79
2022/03/11 04:23:56;;;;;;;;;;;;;;;;;;4862418;29;19912;-79
2022/03/11 04:26:22;;;;;;;;;;;;;;;;;;4862360;29;19909;-79
2022/03/11 04:28:48;;;;;;;;;;;;;;;;;;4861592;29;19998;-79
2022/03/11 04:31:14;;;;;;;;;;;;;;;;;;4857945;29;19916;-79
2022/03/11 04:33:40;;;;;;;;;;;;;;;;;;4861594;29;19912;-79
2022/03/11 04:36:06;;;;;;;;;;;;;;;;;;4862225;29;19919;-79
2022/03/11 04:38:32;;;;;;;;;;;;;;;;;;4862123;29;19915;-80
2022/03/11 04:40:58;;;;;;;;;;;;;;;;;;4845254;29;19923;-80
2022/03/11 04:43:24;;;;;;;;;;;;;;;;;;4861742;29;19912;-79
2022/03/11 04:45:50;;;;;;;;;;;;;;;;;;4861508;29;19916;-79
2022/03/11 04:48:15;;;;;;;;;;;;;;;;;;4861802;29;19912;-80
2022/03/11 04:50:41;;;;;;;;;;;;;;;;;;4861497;29;20292;-80
2022/03/11 04:53:07;;;;;;;;;;;;;;;;;;4862148;29;20270;-80
2022/03/11 04:55:33;;;;;;;;;;;;;;;;;;4861675;29;19976;-80
2022/03/11 04:57:59;;;;;;;;;;;;;;;;;;4855246;29;19959;-80
2022/03/11 05:00:25;;;;;;;;;;;;;;;;;;4851301;29;20003;-79
2022/03/11 05:02:52;;;;;;;;;;;;;;;;;;4861491;29;19916;-79
2022/03/11 05:05:17;;;;;;;;;;;;;;;;;;4861503;29;19922;-79
2022/03/11 05:07:43;;;;;;;;;;;;;;;;;;4861395;29;19913;-79
2022/03/11 05:10:09;;;;;;;;;;;;;;;;;;4861510;29;20374;-79
2022/03/11 05:12:35;;;;;;;;;;;;;;;;;;4861494;29;19920;-86
2022/03/11 05:15:01;;;;;;;;;;;;;;;;;;4844324;29;19912;-83
2022/03/11 05:17:27;;;;;;;;;;;;;;;;;;4861192;29;20282;-81
2022/03/11 05:19:53;;;;;;;;;;;;;;;;;;4861199;29;19912;-80
2022/03/11 05:22:22;;;;;;;;;;;;;;;;;;4844734;29;20011;-80
2022/03/11 05:24:48;;;;;;;;;;;;;;;;;;4861301;29;20369;-80
2022/03/11 05:27:14;;;;;;;;;;;;;;;;;;4861274;29;19912;-81
2022/03/11 05:29:40;;;;;;;;;;;;;;;;;;4860638;29;20361;-81
2022/03/11 05:32:06;;;;;;;;;;;;;;;;;;4859403;29;19923;-81
2022/03/11 05:34:32;;;;;;;;;;;;;;;;;;4861876;29;19930;-81
2022/03/11 05:36:57;;;;;;;;;;;;;;;;;;4855394;29;19938;-83
2022/03/11 05:39:23;;;;;;;;;;;;;;;;;;4860599;29;19912;-84
2022/03/11 05:41:49;;;;;;;;;;;;;;;;;;4858942;29;19912;-79
2022/03/11 05:44:19;;;;;;;;;;;;;;;;;;4870709;29;20323;-81
2022/03/11 05:46:44;;;;;;;;;;;;;;;;;;4874624;29;20372;-87
2022/03/11 05:49:10;;;;;;;;;;;;;;;;;;4860430;29;19968;-79
2022/03/11 05:51:37;;;;;;;;;;;;;;;;;;4845497;29;19968;-82
2022/03/11 05:54:03;;;;;;;;;;;;;;;;;;4842246;29;20028;-82
2022/03/11 05:56:29;;;;;;;;;;;;;;;;;;4848277;29;20431;-81
2022/03/11 05:58:54;;;;;;;;;;;;;;;;;;4867762;29;20023;-81
2022/03/11 06:01:20;;;;;;;;;;;;;;;;;;4855024;29;19921;-82
2022/03/11 06:03:46;;;;;;;;;;;;;;;;;;4850243;29;20296;-83
2022/03/11 06:06:13;;;;;;;;;;;;;;;;;;4848190;29;19924;-83
2022/03/11 06:08:38;;;;;;;;;;;;;;;;;;4856737;29;20373;-82
2022/03/11 06:11:04;;;;;;;;;;;;;;;;;;4862619;29;19927;-81
2022/03/11 06:13:30;;;;;;;;;;;;;;;;;;4860128;29;19923;-84
2022/03/11 06:15:56;;;;;;;;;;;;;;;;;;4860416;29;19989;-82
2022/03/11 06:18:22;;;;;;;;;;;;;;;;;;4843666;29;20308;-85
2022/03/11 11:27:14;;;;;;;;;;;;;;;;;;4941600;23;19954;-82
2022/03/11 11:29:39;;;;;;;;;;;;;;;;;;4907748;29;19915;-80
2022/03/11 11:32:05;;;;;;;;;;;;;;;;;;4900173;29;19915;-79
2022/03/11 11:34:33;;;;;;;;;;;;;;;;;;4900252;29;20002;-82
2022/03/11 11:36:58;;;;;;;;;;;;;;;;;;4900349;29;19912;-83
2022/03/11 11:39:25;;;;;;;;;;;;;;;;;;4900194;29;19911;-82
2022/03/11 11:41:51;;;;;;;;;;;;;;;;;;4900536;29;19915;-83
2022/03/11 11:44:17;;;;;;;;;;;;;;;;;;4904454;29;20011;-82
2022/03/11 11:46:43;;;;;;;;;;;;;;;;;;4899363;29;19968;-81
2022/03/11 11:49:13;;;;;;;;;;;;;;;;;;4900210;29;19947;-82
2022/03/11 11:51:38;;;;;;;;;;;;;;;;;;4901318;29;20056;-81
2022/03/11 11:54:11;;;;;;;;;;;;;;;;;;4900039;29;20370;-82
2022/03/11 11:56:37;;;;;;;;;;;;;;;;;;4898176;29;19976;-81
2022/03/11 11:59:04;;;;;;;;;;;;;;;;;;4888918;29;20272;-81
2022/03/11 12:01:29;;;;;;;;;;;;;;;;;;4899202;29;19958;-82
2022/03/11 12:03:55;;;;;;;;;;;;;;;;;;4899807;29;19954;-80
2022/03/11 12:06:21;;;;;;;;;;;;;;;;;;4899811;29;19907;-81
2022/03/11 12:08:47;;;;;;;;;;;;;;;;;;4899929;29;20372;-83
2022/03/11 12:11:13;;;;;;;;;;;;;;;;;;4900035;29;19915;-80
2022/03/11 12:13:39;;;;;;;;;;;;;;;;;;4899575;29;19911;-80
2022/03/11 12:16:05;;;;;;;;;;;;;;;;;;4914853;29;19918;-80
2022/03/11 12:18:31;;;;;;;;;;;;;;;;;;4897952;29;19953;-82
2022/03/11 12:20:59;;;;;;;;;;;;;;;;;;4918117;29;20014;-81
2022/03/11 16:50:19;;;;;;;;;;;;;;;;;;5347469;23;19935;-80
2022/03/11 16:52:45;;;;;;;;;;;;;;;;;;4896632;29;19919;-81
2022/03/11 16:55:11;;;;;;;;;;;;;;;;;;4898478;29;20377;-80
2022/03/11 16:57:36;;;;;;;;;;;;;;;;;;4898946;29;20031;-77
2022/03/11 17:00:03;;;;;;;;;;;;;;;;;;4898564;29;19916;-79
2022/03/11 17:02:29;;;;;;;;;;;;;;;;;;4898904;29;19912;-75
2022/03/11 17:04:55;;;;;;;;;;;;;;;;;;4898374;29;19930;-76
2022/03/11 17:07:21;;;;;;;;;;;;;;;;;;4898575;29;19954;-76
2022/03/11 17:09:47;;;;;;;;;;;;;;;;;;4898822;29;19914;-75
2022/03/11 17:12:13;;;;;;;;;;;;;;;;;;4881726;29;19916;-77
2022/03/11 17:14:39;;;;;;;;;;;;;;;;;;4882159;29;19911;-76
2022/03/11 17:17:05;;;;;;;;;;;;;;;;;;4898550;29;19912;-77
2022/03/11 17:19:31;;;;;;;;;;;;;;;;;;4898429;29;19912;-76
2022/03/11 17:21:57;;;;;;;;;;;;;;;;;;4881712;29;19918;-78
2022/03/11 17:24:23;;;;;;;;;;;;;;;;;;4897942;29;19923;-75
2022/03/11 17:26:49;;;;;;;;;;;;;;;;;;4881527;29;19918;-77
2022/03/11 17:29:15;;;;;;;;;;;;;;;;;;4898365;29;20261;-78
2022/03/11 17:31:41;;;;;;;;;;;;;;;;;;4898572;29;19916;-77
2022/03/11 17:34:08;;;;;;;;;;;;;;;;;;4888676;29;19919;-78
2022/03/11 17:36:34;;;;;;;;;;;;;;;;;;4873744;29;20383;-78
2022/03/11 17:39:00;;;;;;;;;;;;;;;;;;4895867;29;19911;-78
2022/03/11 17:41:26;;;;;;;;;;;;;;;;;;4917474;29;19912;-78
2022/03/11 17:43:52;;;;;;;;;;;;;;;;;;4899515;29;20261;-78
2022/03/11 17:46:18;;;;;;;;;;;;;;;;;;4896850;29;19915;-78
2022/03/11 17:48:44;;;;;;;;;;;;;;;;;;4898263;29;20448;-78
2022/03/11 17:51:10;;;;;;;;;;;;;;;;;;4899980;29;19970;-79
2022/03/11 17:53:37;;;;;;;;;;;;;;;;;;4898398;29;19940;-78
2022/03/11 17:56:03;;;;;;;;;;;;;;;;;;4899853;29;19918;-78
2022/03/11 17:58:32;;;;;;;;;;;;;;;;;;4916875;29;19911;-78
2022/03/11 18:00:58;;;;;;;;;;;;;;;;;;4917086;29;19917;-78
2022/03/11 18:03:25;;;;;;;;;;;;;;;;;;4916317;29;20287;-78
2022/03/11 18:05:51;;;;;;;;;;;;;;;;;;4916978;29;20403;-79
2022/03/11 18:08:17;;;;;;;;;;;;;;;;;;4916884;29;20383;-78
2022/03/11 18:10:43;;;;;;;;;;;;;;;;;;4916900;29;19911;-78
2022/03/11 18:13:11;;;;;;;;;;;;;;;;;;4916919;29;19915;-78
2022/03/11 18:15:37;;;;;;;;;;;;;;;;;;4916917;29;20430;-78
2022/03/11 18:18:03;;;;;;;;;;;;;;;;;;4916625;29;19911;-78
2022/03/11 18:20:29;;;;;;;;;;;;;;;;;;4899788;29;20042;-79
2022/03/11 18:22:55;;;;;;;;;;;;;;;;;;4916501;29;19955;-80
2022/03/11 18:25:21;;;;;;;;;;;;;;;;;;4881480;29;19944;-79
2022/03/11 18:27:47;;;;;;;;;;;;;;;;;;4886696;29;19917;-79
2022/03/11 18:30:13;;;;;;;;;;;;;;;;;;4916646;29;20002;-78
2022/03/11 18:32:39;;;;;;;;;;;;;;;;;;4916074;29;19925;-79
2022/03/11 18:35:05;;;;;;;;;;;;;;;;;;4917023;29;19918;-79
2022/03/11 18:37:33;;;;;;;;;;;;;;;;;;4919600;29;19911;-78
2022/03/11 18:40:00;;;;;;;;;;;;;;;;;;4920365;29;19911;-79
2022/03/11 18:42:26;;;;;;;;;;;;;;;;;;4920740;29;20382;-78
2022/03/11 18:44:52;;;;;;;;;;;;;;;;;;4920547;29;20367;-79
2022/03/11 18:47:18;;;;;;;;;;;;;;;;;;4913215;29;19912;-81
2022/03/11 18:49:44;;;;;;;;;;;;;;;;;;4900718;29;19927;-80
2022/03/11 18:52:10;;;;;;;;;;;;;;;;;;4910412;29;20282;-80
2022/03/11 18:54:36;;;;;;;;;;;;;;;;;;4919608;29;19918;-79
2022/03/11 18:57:02;;;;;;;;;;;;;;;;;;4919819;29;19915;-80
2022/03/11 18:59:28;;;;;;;;;;;;;;;;;;4920190;29;19911;-77
2022/03/11 19:01:54;;;;;;;;;;;;;;;;;;4903069;29;19911;-80
2022/03/11 19:04:20;;;;;;;;;;;;;;;;;;4919952;29;19911;-81
2022/03/11 19:06:46;;;;;;;;;;;;;;;;;;4912241;29;19923;-80
2022/03/11 19:09:12;;;;;;;;;;;;;;;;;;4901056;29;19946;-79
2022/03/11 19:11:39;;;;;;;;;;;;;;;;;;4900957;29;19962;-80
2022/03/11 19:14:05;;;;;;;;;;;;;;;;;;4901220;29;19951;-80
2022/03/11 19:16:31;;;;;;;;;;;;;;;;;;4900489;29;19950;-80
2022/03/11 19:18:57;;;;;;;;;;;;;;;;;;4911660;29;20387;-80
2022/03/11 19:21:24;;;;;;;;;;;;;;;;;;4916244;29;20366;-81
2022/03/11 19:23:50;;;;;;;;;;;;;;;;;;4900431;29;20329;-80
2022/03/11 19:26:17;;;;;;;;;;;;;;;;;;4904338;29;19919;-82
2022/03/11 19:28:45;;;;;;;;;;;;;;;;;;4902294;29;19973;-80
2022/03/11 19:31:11;;;;;;;;;;;;;;;;;;4895917;29;19938;-81
2022/03/11 19:33:38;;;;;;;;;;;;;;;;;;4901698;29;19916;-80
2022/03/11 19:36:05;;;;;;;;;;;;;;;;;;4902490;29;19918;-80
2022/03/11 19:38:31;;;;;;;;;;;;;;;;;;4897315;29;20384;-80
2022/03/11 19:40:59;;;;;;;;;;;;;;;;;;4918893;29;20260;-78
2022/03/11 19:43:26;;;;;;;;;;;;;;;;;;4890339;29;20273;-79
2022/03/11 19:45:52;;;;;;;;;;;;;;;;;;4881684;29;19912;-80
2022/03/11 19:48:18;;;;;;;;;;;;;;;;;;4881397;29;19915;-80
2022/03/11 19:50:44;;;;;;;;;;;;;;;;;;4898394;29;20300;-80
2022/03/11 19:53:10;;;;;;;;;;;;;;;;;;4918932;29;19930;-79
2022/03/11 19:55:37;;;;;;;;;;;;;;;;;;4902974;29;19923;-79
2022/03/11 19:58:03;;;;;;;;;;;;;;;;;;4914295;29;19915;-80
2022/03/11 20:00:30;;;;;;;;;;;;;;;;;;4910836;29;20290;-82
2022/03/11 20:02:56;;;;;;;;;;;;;;;;;;4918337;29;19911;-80
2022/03/11 20:05:22;;;;;;;;;;;;;;;;;;4918326;29;19936;-80
2022/03/11 20:08:05;;;;;;;;;;;;;;;;;;4900410;29;20260;-80
2022/03/11 20:10:31;;;;;;;;;;;;;;;;;;4917268;29;19915;-80
2022/03/11 20:12:58;;;;;;;;;;;;;;;;;;4914818;29;19915;-80
2022/03/11 20:15:26;;;;;;;;;;;;;;;;;;4894802;29;19911;-80
2022/03/11 20:17:52;;;;;;;;;;;;;;;;;;4917694;29;19911;-80
2022/03/11 20:20:18;;;;;;;;;;;;;;;;;;4915825;29;20283;-81
2022/03/11 20:22:44;;;;;;;;;;;;;;;;;;4917353;29;19919;-80
2022/03/11 20:25:11;;;;;;;;;;;;;;;;;;4917752;29;19911;-81
2022/03/11 20:27:42;;;;;;;;;;;;;;;;;;4906449;29;19918;-81
2022/03/11 20:30:08;;;;;;;;;;;;;;;;;;4917895;29;20050;-81
2022/03/11 20:32:35;;;;;;;;;;;;;;;;;;4900839;29;20438;-81
2022/03/11 20:35:01;;;;;;;;;;;;;;;;;;4914053;29;19918;-81
2022/03/11 20:37:27;;;;;;;;;;;;;;;;;;4917310;29;19919;-81
2022/03/11 20:39:54;;;;;;;;;;;;;;;;;;4915002;29;19911;-81
2022/03/11 20:42:19;;;;;;;;;;;;;;;;;;4907366;29;20015;-81
2022/03/11 20:44:45;;;;;;;;;;;;;;;;;;4914047;29;19958;-81
2022/03/11 20:47:12;;;;;;;;;;;;;;;;;;4917442;29;19911;-80
2022/03/11 20:49:38;;;;;;;;;;;;;;;;;;4912656;29;20404;-80
2022/03/11 20:52:06;;;;;;;;;;;;;;;;;;4913648;29;19915;-80
2022/03/11 20:54:32;;;;;;;;;;;;;;;;;;4915725;29;19911;-81
2022/03/11 20:56:58;;;;;;;;;;;;;;;;;;4899530;29;19917;-80
2022/03/11 20:59:24;;;;;;;;;;;;;;;;;;4898381;29;19976;-80
2022/03/11 21:01:50;;;;;;;;;;;;;;;;;;4899008;29;19998;-80
2022/03/11 21:04:17;;;;;;;;;;;;;;;;;;4884111;29;20361;-83
2022/03/11 21:06:46;;;;;;;;;;;;;;;;;;4891755;29;19919;-80
2022/03/11 21:09:13;;;;;;;;;;;;;;;;;;4911577;29;19935;-80
2022/03/11 21:11:42;;;;;;;;;;;;;;;;;;4917328;29;19916;-81
2022/03/11 21:14:09;;;;;;;;;;;;;;;;;;4917477;29;19943;-80
2022/03/11 21:16:35;;;;;;;;;;;;;;;;;;4917810;29;20368;-80
2022/03/11 21:19:02;;;;;;;;;;;;;;;;;;4917728;29;19919;-80
2022/03/11 21:21:29;;;;;;;;;;;;;;;;;;4910341;29;19941;-81
2022/03/11 21:23:55;;;;;;;;;;;;;;;;;;4916992;29;20340;-81
2022/03/11 21:26:21;;;;;;;;;;;;;;;;;;4898854;29;20002;-81
2022/03/11 21:28:47;;;;;;;;;;;;;;;;;;4917503;29;20002;-81
2022/03/11 21:31:15;;;;;;;;;;;;;;;;;;4900152;29;20006;-81
2022/03/11 21:33:41;;;;;;;;;;;;;;;;;;4881680;29;19911;-81
2022/03/11 21:36:09;;;;;;;;;;;;;;;;;;4914627;29;19940;-83
2022/03/11 21:38:34;;;;;;;;;;;;;;;;;;4900258;29;20009;-81
2022/03/11 21:41:00;;;;;;;;;;;;;;;;;;4914125;29;19942;-80
2022/03/11 21:43:26;;;;;;;;;;;;;;;;;;4898397;29;19919;-80
2022/03/11 21:45:55;;;;;;;;;;;;;;;;;;4889912;29;20292;-81
2022/03/11 21:48:21;;;;;;;;;;;;;;;;;;4881330;29;20384;-81
2022/03/11 21:50:47;;;;;;;;;;;;;;;;;;4905211;29;19934;-81
2022/03/11 21:53:13;;;;;;;;;;;;;;;;;;4913584;29;19930;-80
2022/03/11 21:55:39;;;;;;;;;;;;;;;;;;4898021;29;19918;-80
2022/03/11 21:58:05;;;;;;;;;;;;;;;;;;4896850;29;19912;-81
2022/03/11 22:00:31;;;;;;;;;;;;;;;;;;4881256;29;20286;-81
2022/03/11 22:02:56;;;;;;;;;;;;;;;;;;4873767;29;19916;-81
2022/03/11 22:05:22;;;;;;;;;;;;;;;;;;4898070;29;20407;-82
2022/03/11 22:07:48;;;;;;;;;;;;;;;;;;4907136;29;19963;-81
2022/03/11 22:10:16;;;;;;;;;;;;;;;;;;4894383;29;20371;-82
2022/03/11 22:12:42;;;;;;;;;;;;;;;;;;4897103;29;19915;-82
2022/03/11 22:15:08;;;;;;;;;;;;;;;;;;4888737;29;19921;-81
2022/03/11 22:17:34;;;;;;;;;;;;;;;;;;4897775;29;19918;-81
2022/03/11 22:20:01;;;;;;;;;;;;;;;;;;4883578;29;20273;-82
2022/03/11 22:22:27;;;;;;;;;;;;;;;;;;4897046;29;19911;-82
2022/03/11 22:24:52;;;;;;;;;;;;;;;;;;4916113;29;19937;-82
2022/03/11 22:27:18;;;;;;;;;;;;;;;;;;4916503;29;19918;-82
2022/03/11 22:29:44;;;;;;;;;;;;;;;;;;4899720;29;20371;-82
2022/03/11 22:32:10;;;;;;;;;;;;;;;;;;4890172;29;19915;-82
2022/03/11 22:34:36;;;;;;;;;;;;;;;;;;4916374;29;19918;-82
2022/03/11 22:37:02;;;;;;;;;;;;;;;;;;4915623;29;19915;-82
2022/03/11 22:39:28;;;;;;;;;;;;;;;;;;4915720;29;19912;-81
2022/03/11 22:41:54;;;;;;;;;;;;;;;;;;4916524;29;19911;-81
2022/03/11 22:44:20;;;;;;;;;;;;;;;;;;4887508;29;20292;-81
2022/03/11 22:46:46;;;;;;;;;;;;;;;;;;4891126;29;19919;-81
2022/03/11 22:49:12;;;;;;;;;;;;;;;;;;4905337;29;19916;-81
2022/03/11 22:51:38;;;;;;;;;;;;;;;;;;4897076;29;20458;-82
2022/03/11 22:54:07;;;;;;;;;;;;;;;;;;4902293;29;19919;-81
2022/03/11 22:56:34;;;;;;;;;;;;;;;;;;4915967;29;20421;-81
2022/03/11 22:59:11;;;;;;;;;;;;;;;;;;4916082;29;19916;-81
2022/03/11 23:01:36;;;;;;;;;;;;;;;;;;4882949;29;19932;-82
2022/03/11 23:04:02;;;;;;;;;;;;;;;;;;4878656;29;20117;-82
2022/03/11 23:09:31;;;;;;;;;;;;;;;;;;4898807;29;20013;-82
2022/03/11 23:11:58;;;;;;;;;;;;;;;;;;4878739;29;19916;-82
2022/03/11 23:14:24;;;;;;;;;;;;;;;;;;4911422;29;19911;-82
2022/03/11 23:16:50;;;;;;;;;;;;;;;;;;4916151;29;19912;-82
2022/03/11 23:19:16;;;;;;;;;;;;;;;;;;4916047;29;19926;-82
2022/03/11 23:21:42;;;;;;;;;;;;;;;;;;4916114;29;19915;-81
2022/03/11 23:24:08;;;;;;;;;;;;;;;;;;4914041;29;19999;-82
2022/03/11 23:26:34;;;;;;;;;;;;;;;;;;4919264;29;19969;-82
2022/03/11 23:29:00;;;;;;;;;;;;;;;;;;4919423;29;19918;-82
2022/03/11 23:31:27;;;;;;;;;;;;;;;;;;4919551;29;20084;-82
2022/03/11 23:33:52;;;;;;;;;;;;;;;;;;4919305;29;19992;-82
2022/03/11 23:36:18;;;;;;;;;;;;;;;;;;4901878;29;19911;-81
2022/03/11 23:38:46;;;;;;;;;;;;;;;;;;4907271;29;19918;-82
2022/03/11 23:41:12;;;;;;;;;;;;;;;;;;4911851;29;19933;-81
2022/03/11 23:43:39;;;;;;;;;;;;;;;;;;4919227;29;19998;-82
2022/03/11 23:46:06;;;;;;;;;;;;;;;;;;4892862;29;19912;-81
2022/03/11 23:48:34;;;;;;;;;;;;;;;;;;4890755;29;20368;-82
2022/03/11 23:51:01;;;;;;;;;;;;;;;;;;4904384;29;19928;-82
2022/03/11 23:53:27;;;;;;;;;;;;;;;;;;4887963;29;19915;-82
2022/03/11 23:55:53;;;;;;;;;;;;;;;;;;4902227;29;19919;-82
2022/03/11 23:58:19;;;;;;;;;;;;;;;;;;4895760;29;19912;-81
